Terminal Aerodrome Forecast
Issued by NWS Shreveport, LA

Home | Current Version | Previous Version | Text Only | Print | Product List | Glossary On
Versions: 1 2 3 4 5 6 7 8 9 10 11 12 13 14 15 16 17 18 19 20 21 22 23 24 25 26
036
FTUS44 KSHV 192337
TAFLFK
TAF
KLFK 192337Z 2000/2024 16012G20KT P6SM FEW040 OVC060
     FM200300 15013G20KT P6SM BKN025 OVC035
     FM200600 15012G18KT P6SM OVC015
     FM201500 15013G22KT P6SM VCSH BKN020 OVC030=

USA.gov is the U.S. government's official web portal to all federal, state and local government web resources and services.